createdAt,value
2022-10-05T13:05:59.039Z,10.32
2022-10-05T13:08:49.798Z,10.25
2022-10-05T13:11:55.945Z,8.70
2022-10-05T13:15:07.789Z,7.40
2022-10-05T13:18:04.960Z,8.13
2022-10-05T13:20:45.448Z,8.10
2022-10-05T13:23:25.894Z,8.18
2022-10-05T13:26:11.445Z,8.43
2022-10-05T13:29:11.060Z,8.73
2022-10-05T13:31:46.152Z,9.40
2022-10-05T13:34:32.140Z,9.80
2022-10-05T13:37:33.876Z,9.07
2022-10-05T13:40:06.673Z,7.90
2022-10-05T13:42:52.720Z,8.07
2022-10-05T13:45:30.055Z,9.32
2022-10-05T13:48:34.496Z,8.93
2022-10-05T13:51:59.209Z,10.18
2022-10-05T13:54:50.969Z,8.52
2022-10-05T13:57:51.650Z,9.88
2022-10-05T14:00:26.811Z,9.65
2022-10-05T14:02:56.828Z,8.57
2022-10-05T14:05:27.002Z,9.32
2022-10-05T14:08:02.607Z,8.20
2022-10-05T14:10:42.051Z,9.20
2022-10-05T14:13:23.318Z,8.55
2022-10-05T14:16:01.754Z,8.05
2022-10-05T14:18:33.494Z,9.15
2022-10-05T14:21:08.937Z,8.95
2022-10-05T14:23:35.932Z,8.55
2022-10-05T14:26:31.556Z,7.93
2022-10-05T14:28:58.312Z,9.20
2022-10-05T14:31:51.267Z,8.63
2022-10-05T14:34:32.822Z,8.07
2022-10-05T14:37:05.048Z,7.88
2022-10-05T14:39:34.592Z,8.57
2022-10-05T14:42:15.338Z,8.35
2022-10-05T14:44:42.139Z,7.78
2022-10-05T14:47:22.903Z,6.60
2022-10-05T14:50:15.057Z,8.00
2022-10-05T14:52:51.625Z,7.43
2022-10-05T14:55:37.833Z,7.93
2022-10-05T14:58:28.053Z,8.25
2022-10-05T15:01:13.703Z,9.02
2022-10-05T15:04:03.901Z,7.28
2022-10-05T15:07:03.297Z,8.23
2022-10-05T15:10:22.597Z,7.47
2022-10-05T15:12:50.475Z,7.78
2022-10-05T15:15:38.643Z,7.97
2022-10-05T15:21:34.129Z,8.07
2022-10-05T15:24:07.809Z,7.47
2022-10-05T15:26:43.478Z,9.10
2022-10-05T15:29:36.242Z,7.63
2022-10-05T15:32:24.829Z,7.40
2022-10-05T15:35:28.015Z,7.95
2022-10-05T15:38:27.479Z,8.00
2022-10-05T15:41:06.203Z,7.97
2022-10-05T15:43:58.576Z,8.07
2022-10-05T15:46:35.879Z,6.72
2022-10-05T15:49:38.286Z,7.20
2022-10-05T15:52:07.881Z,6.60
2022-10-05T15:55:06.954Z,8.30
2022-10-05T15:58:01.802Z,7.57
2022-10-05T16:00:30.258Z,7.90
2022-10-05T16:06:08.833Z,5.85
2022-10-05T16:09:25.807Z,7.32
2022-10-05T16:12:18.886Z,7.75
2022-10-05T16:14:54.505Z,7.00
2022-10-05T16:17:59.473Z,6.82
2022-10-05T16:21:04.768Z,6.30
2022-10-05T16:24:18.845Z,11.07
2022-10-05T16:26:59.732Z,6.80
2022-10-05T16:29:54.310Z,6.45
2022-10-05T16:32:30.139Z,6.78
2022-10-05T16:34:59.376Z,6.55
2022-10-05T16:37:50.101Z,7.05
2022-10-05T16:40:41.508Z,7.07
2022-10-05T16:43:26.491Z,6.25
2022-10-05T16:46:19.121Z,6.13
2022-10-05T16:48:54.166Z,7.03
2022-10-05T16:51:43.733Z,5.88
2022-10-05T16:54:23.857Z,6.65
2022-10-05T16:56:59.600Z,7.07
2022-10-05T17:00:01.787Z,16.58
2022-10-05T17:03:06.283Z,6.60
2022-10-05T17:06:20.729Z,6.70
2022-10-05T17:09:12.554Z,6.97
2022-10-05T17:11:57.333Z,7.20
2022-10-05T17:14:54.462Z,7.25
2022-10-05T17:17:27.412Z,8.05
2022-10-05T17:20:12.984Z,7.30
2022-10-05T17:22:51.137Z,8.18
2022-10-05T17:25:24.239Z,9.00
2022-10-05T17:28:15.084Z,7.78
2022-10-05T17:31:13.035Z,8.82
2022-10-05T17:34:26.335Z,9.32
2022-10-05T17:37:17.462Z,8.00
2022-10-05T17:39:52.451Z,11.38
2022-10-05T17:42:40.275Z,11.52
2022-10-05T17:45:11.971Z,12.63
2022-10-05T17:47:57.855Z,11.95
2022-10-05T17:51:02.986Z,10.65
2022-10-05T17:54:04.493Z,8.82
2022-10-05T17:56:54.400Z,9.20
2022-10-05T17:59:44.734Z,10.50
2022-10-05T18:02:40.627Z,10.27
2022-10-05T18:05:12.555Z,10.65
2022-10-05T18:07:40.773Z,10.35
2022-10-05T18:10:11.726Z,10.30
2022-10-05T18:13:04.648Z,9.60
2022-10-05T18:15:31.367Z,11.57
2022-10-05T18:18:20.067Z,11.70
2022-10-05T18:21:29.856Z,11.40
2022-10-05T18:23:59.673Z,12.63
2022-10-05T18:26:59.441Z,10.77
2022-10-05T18:30:03.300Z,12.00
2022-10-05T18:32:56.016Z,10.75
2022-10-05T18:35:56.880Z,10.85
2022-10-05T18:38:52.912Z,11.07
2022-10-05T18:41:46.346Z,12.77
2022-10-05T18:44:35.212Z,12.52
2022-10-05T18:47:33.668Z,13.52
2022-10-05T18:50:18.716Z,9.98
2022-10-05T18:53:09.997Z,11.95
2022-10-05T18:55:45.748Z,10.52
2022-10-05T18:58:22.452Z,10.60
2022-10-05T19:01:05.390Z,11.07
2022-10-05T19:03:49.573Z,10.27
2022-10-05T19:06:30.014Z,12.45
2022-10-05T19:09:24.126Z,13.55
2022-10-05T19:12:05.357Z,9.82
2022-10-05T19:14:41.498Z,9.80
2022-10-05T19:17:10.755Z,12.77
2022-10-05T19:19:57.586Z,10.85
2022-10-05T19:22:45.892Z,13.07
2022-10-05T19:25:39.479Z,13.63
2022-10-05T19:28:23.094Z,15.35
2022-10-05T19:31:11.720Z,12.55
2022-10-05T19:34:16.603Z,13.57
2022-10-05T19:36:49.268Z,12.88
2022-10-05T19:39:31.165Z,13.63
2022-10-05T19:42:22.437Z,12.90
2022-10-05T19:45:15.163Z,13.18
2022-10-05T19:48:07.681Z,13.10
2022-10-05T19:50:38.603Z,14.68
2022-10-05T19:53:14.021Z,13.38
2022-10-05T19:55:43.787Z,11.98
2022-10-05T19:58:28.654Z,14.32
2022-10-05T20:00:55.601Z,14.55
2022-10-05T20:03:29.275Z,14.00
2022-10-05T20:06:08.895Z,14.15
2022-10-05T20:08:43.863Z,10.63
2022-10-05T20:11:12.003Z,13.25
2022-10-05T20:13:47.419Z,13.40
2022-10-05T20:16:35.587Z,13.88
2022-10-05T20:19:34.894Z,16.77
2022-10-05T20:22:35.012Z,13.27
2022-10-05T20:25:29.214Z,15.55
2022-10-05T20:27:57.076Z,15.77
2022-10-05T20:30:27.493Z,17.00
2022-10-05T20:32:58.255Z,13.43
2022-10-05T20:35:27.870Z,17.08
2022-10-05T20:37:59.506Z,13.60
2022-10-05T20:40:29.073Z,13.13
2022-10-05T20:42:56.829Z,13.95
2022-10-05T20:45:23.538Z,14.65
2022-10-05T20:47:51.026Z,15.07
2022-10-05T20:50:17.821Z,13.73
2022-10-05T20:52:44.626Z,14.30
2022-10-05T20:55:11.960Z,15.52
2022-10-05T20:57:42.318Z,15.65
2022-10-05T21:00:12.962Z,15.27
2022-10-05T21:02:39.611Z,13.70
2022-10-05T21:05:07.685Z,14.25
2022-10-05T21:07:35.018Z,14.85
2022-10-05T21:10:03.873Z,15.23
2022-10-05T21:12:30.705Z,16.48
2022-10-05T21:14:57.518Z,17.17
2022-10-05T21:17:24.236Z,15.57
2022-10-05T21:19:52.586Z,14.00
2022-10-05T21:22:19.479Z,17.40
2022-10-05T21:24:46.028Z,12.80
2022-10-05T21:27:12.621Z,14.60
2022-10-05T21:29:41.106Z,15.45
2022-10-05T21:32:12.039Z,16.10
2022-10-05T21:34:39.784Z,16.23
2022-10-05T21:37:08.085Z,15.50
2022-10-05T21:39:35.445Z,14.63
2022-10-05T21:42:02.286Z,16.77
2022-10-05T21:44:28.799Z,15.13
2022-10-05T21:46:56.567Z,17.08
2022-10-05T21:49:23.955Z,18.02
2022-10-05T21:52:00.684Z,14.13
2022-10-05T21:54:28.668Z,14.80
2022-10-05T21:56:57.487Z,18.45
2022-10-05T22:01:54.160Z,16.55
2022-10-05T22:04:20.921Z,16.23
2022-10-05T22:06:49.082Z,14.95
2022-10-05T22:09:15.665Z,15.80
2022-10-05T22:11:42.439Z,16.20
2022-10-05T22:14:09.169Z,12.60
2022-10-05T22:16:38.678Z,18.00
2022-10-05T22:19:10.740Z,15.77
2022-10-05T22:21:41.537Z,13.82
2022-10-05T22:24:11.393Z,17.17
2022-10-05T22:26:41.977Z,15.27
2022-10-05T22:29:09.658Z,15.98
2022-10-05T22:31:36.827Z,15.07
2022-10-05T22:34:03.486Z,13.15
2022-10-05T22:36:30.188Z,13.02
2022-10-05T22:38:56.879Z,17.05
2022-10-05T22:41:23.691Z,14.38
2022-10-05T22:43:51.292Z,13.82
2022-10-05T22:46:18.641Z,16.60
2022-10-05T22:48:45.266Z,15.68
2022-10-05T22:51:12.540Z,17.25
2022-10-05T22:53:39.189Z,13.82
2022-10-05T22:56:08.373Z,15.02
2022-10-05T22:58:35.549Z,16.67
2022-10-05T23:01:04.830Z,15.65
2022-10-05T23:03:32.548Z,14.45
2022-10-05T23:06:14.069Z,16.58
2022-10-05T23:08:41.808Z,14.80
2022-10-05T23:11:16.762Z,17.30
2022-10-05T23:13:44.005Z,17.33
2022-10-05T23:16:16.697Z,15.00
2022-10-05T23:18:44.649Z,15.98
2022-10-05T23:21:12.091Z,18.67
2022-10-05T23:23:40.711Z,15.52
2022-10-05T23:26:09.840Z,16.15
2022-10-05T23:28:38.391Z,15.18
2022-10-05T23:31:07.349Z,16.27
2022-10-05T23:33:34.871Z,17.80
2022-10-05T23:36:04.810Z,15.98
2022-10-05T23:38:32.190Z,18.08
2022-10-05T23:40:59.774Z,16.80
2022-10-05T23:43:27.316Z,16.02
2022-10-05T23:45:54.073Z,13.23
2022-10-05T23:48:21.420Z,12.13
2022-10-05T23:50:49.500Z,14.90
2022-10-05T23:53:17.278Z,17.45
2022-10-05T23:55:43.871Z,12.65
2022-10-05T23:58:11.093Z,15.85
